sensor_id;sensor_type;location;lat;lon;timestamp;pressure;altitude;pressure_sealevel;temperature;humidity
11041;BME280;5573;49.592;8.662;2023-07-31T00:02:05;99830.13;;;18.60;56.82
11041;BME280;5573;49.592;8.662;2023-07-31T00:04:33;99844.16;;;18.57;57.22
11041;BME280;5573;49.592;8.662;2023-07-31T00:07:01;99833.31;;;18.52;57.01
11041;BME280;5573;49.592;8.662;2023-07-31T00:09:32;99834.13;;;18.58;57.17
11041;BME280;5573;49.592;8.662;2023-07-31T00:12:00;99823.34;;;18.53;57.42
11041;BME280;5573;49.592;8.662;2023-07-31T00:14:28;99828.13;;;18.51;57.42
11041;BME280;5573;49.592;8.662;2023-07-31T00:16:56;99829.56;;;18.53;57.56
11041;BME280;5573;49.592;8.662;2023-07-31T00:19:24;99828.47;;;18.54;57.65
11041;BME280;5573;49.592;8.662;2023-07-31T00:21:52;99828.22;;;18.56;57.81
11041;BME280;5573;49.592;8.662;2023-07-31T00:24:20;99815.44;;;18.41;57.94
11041;BME280;5573;49.592;8.662;2023-07-31T00:26:49;99828.44;;;18.49;57.91
11041;BME280;5573;49.592;8.662;2023-07-31T00:29:18;99814.31;;;18.37;57.84
11041;BME280;5573;49.592;8.662;2023-07-31T00:31:46;99817.31;;;18.40;57.96
11041;BME280;5573;49.592;8.662;2023-07-31T00:34:16;99818.66;;;18.43;58.10
11041;BME280;5573;49.592;8.662;2023-07-31T00:36:44;99816.25;;;18.47;58.06
11041;BME280;5573;49.592;8.662;2023-07-31T00:39:12;99818.66;;;18.43;57.65
11041;BME280;5573;49.592;8.662;2023-07-31T00:41:40;99813.53;;;18.41;58.27
11041;BME280;5573;49.592;8.662;2023-07-31T00:44:09;99806.78;;;18.39;57.92
11041;BME280;5573;49.592;8.662;2023-07-31T00:46:37;99812.69;;;18.36;58.20
11041;BME280;5573;49.592;8.662;2023-07-31T00:49:05;99811.88;;;18.30;58.07
11041;BME280;5573;49.592;8.662;2023-07-31T00:51:33;99803.28;;;18.38;58.05
11041;BME280;5573;49.592;8.662;2023-07-31T00:54:01;99796.78;;;18.34;57.97
11041;BME280;5573;49.592;8.662;2023-07-31T00:56:30;99799.47;;;18.34;58.19
11041;BME280;5573;49.592;8.662;2023-07-31T00:59:00;99801.09;;;18.35;57.86
11041;BME280;5573;49.592;8.662;2023-07-31T01:01:29;99804.34;;;18.37;57.92
11041;BME280;5573;49.592;8.662;2023-07-31T01:03:57;99805.13;;;18.33;58.59
11041;BME280;5573;49.592;8.662;2023-07-31T01:06:32;99792.94;;;18.25;58.92
11041;BME280;5573;49.592;8.662;2023-07-31T01:09:07;99789.19;;;18.26;58.18
11041;BME280;5573;49.592;8.662;2023-07-31T01:11:43;99793.53;;;18.32;58.44
11041;BME280;5573;49.592;8.662;2023-07-31T01:14:14;99792.66;;;18.22;59.03
11041;BME280;5573;49.592;8.662;2023-07-31T01:16:43;99794.53;;;18.21;58.99
11041;BME280;5573;49.592;8.662;2023-07-31T01:19:14;99788.03;;;18.17;59.30
11041;BME280;5573;49.592;8.662;2023-07-31T01:21:56;99785.38;;;18.22;59.20
11041;BME280;5573;49.592;8.662;2023-07-31T01:24:30;99781.81;;;18.12;59.78
11041;BME280;5573;49.592;8.662;2023-07-31T01:27:07;99791.47;;;18.03;60.46
11041;BME280;5573;49.592;8.662;2023-07-31T01:29:40;99792.81;;;18.00;59.53
11041;BME280;5573;49.592;8.662;2023-07-31T01:32:11;99789.06;;;18.06;59.21
11041;BME280;5573;49.592;8.662;2023-07-31T01:34:41;99793.91;;;18.04;59.11
11041;BME280;5573;49.592;8.662;2023-07-31T01:37:09;99789.63;;;18.08;59.57
11041;BME280;5573;49.592;8.662;2023-07-31T01:39:37;99785.78;;;17.99;60.04
11041;BME280;5573;49.592;8.662;2023-07-31T01:42:06;99787.38;;;17.95;59.88
11041;BME280;5573;49.592;8.662;2023-07-31T01:44:35;99786.84;;;17.98;60.02
11041;BME280;5573;49.592;8.662;2023-07-31T01:47:04;99786.06;;;18.03;60.00
11041;BME280;5573;49.592;8.662;2023-07-31T01:49:32;99779.28;;;17.95;60.25
11041;BME280;5573;49.592;8.662;2023-07-31T01:52:01;99781.97;;;17.90;60.20
11041;BME280;5573;49.592;8.662;2023-07-31T01:54:29;99775.19;;;17.87;59.82
11041;BME280;5573;49.592;8.662;2023-07-31T01:56:56;99774.38;;;17.87;60.48
11041;BME280;5573;49.592;8.662;2023-07-31T01:59:26;99760.84;;;17.77;60.50
11041;BME280;5573;49.592;8.662;2023-07-31T02:01:53;99769.50;;;17.79;60.48
11041;BME280;5573;49.592;8.662;2023-07-31T02:04:21;99768.72;;;17.88;59.59
11041;BME280;5573;49.592;8.662;2023-07-31T02:06:49;99767.34;;;17.81;60.01
11041;BME280;5573;49.592;8.662;2023-07-31T02:09:17;99767.59;;;17.79;60.73
11041;BME280;5573;49.592;8.662;2023-07-31T02:11:44;99767.56;;;17.74;60.11
11041;BME280;5573;49.592;8.662;2023-07-31T02:14:12;99757.63;;;17.80;60.01
11041;BME280;5573;49.592;8.662;2023-07-31T02:16:41;99755.16;;;17.73;60.93
11041;BME280;5573;49.592;8.662;2023-07-31T02:19:10;99753.31;;;17.79;60.01
11041;BME280;5573;49.592;8.662;2023-07-31T02:21:37;99736.03;;;17.75;60.09
11041;BME280;5573;49.592;8.662;2023-07-31T02:24:06;99749.25;;;17.76;60.40
11041;BME280;5573;49.592;8.662;2023-07-31T02:26:33;99741.44;;;17.75;60.67
11041;BME280;5573;49.592;8.662;2023-07-31T02:29:01;99748.41;;;17.71;60.79
11041;BME280;5573;49.592;8.662;2023-07-31T02:31:30;99739.50;;;17.70;60.72
11041;BME280;5573;49.592;8.662;2023-07-31T02:33:59;99747.31;;;17.72;60.86
11041;BME280;5573;49.592;8.662;2023-07-31T02:36:27;99741.16;;;17.71;61.09
11041;BME280;5573;49.592;8.662;2023-07-31T02:38:55;99740.56;;;17.69;60.96
11041;BME280;5573;49.592;8.662;2023-07-31T02:41:23;99741.63;;;17.68;61.02
11041;BME280;5573;49.592;8.662;2023-07-31T02:43:50;99745.16;;;17.69;61.31
11041;BME280;5573;49.592;8.662;2023-07-31T02:46:19;99744.09;;;17.70;61.41
11041;BME280;5573;49.592;8.662;2023-07-31T02:48:50;99745.66;;;17.66;61.80
11041;BME280;5573;49.592;8.662;2023-07-31T02:51:20;99738.56;;;17.55;62.14
11041;BME280;5573;49.592;8.662;2023-07-31T02:53:48;99742.69;;;17.62;61.51
11041;BME280;5573;49.592;8.662;2023-07-31T02:56:16;99732.91;;;17.56;62.03
11041;BME280;5573;49.592;8.662;2023-07-31T02:58:44;99735.41;;;17.63;61.13
11041;BME280;5573;49.592;8.662;2023-07-31T03:01:12;99738.31;;;17.56;61.65
11041;BME280;5573;49.592;8.662;2023-07-31T03:03:41;99702.00;;;17.27;61.60
11041;BME280;5573;49.592;8.662;2023-07-31T03:06:11;99740.91;;;17.46;62.21
11041;BME280;5573;49.592;8.662;2023-07-31T03:08:40;99741.19;;;17.50;61.50
11041;BME280;5573;49.592;8.662;2023-07-31T03:11:08;99735.41;;;17.63;61.55
11041;BME280;5573;49.592;8.662;2023-07-31T03:13:35;99735.94;;;17.60;61.36
11041;BME280;5573;49.592;8.662;2023-07-31T03:16:03;99728.84;;;17.54;61.31
11041;BME280;5573;49.592;8.662;2023-07-31T03:18:31;99732.91;;;17.56;61.44
11041;BME280;5573;49.592;8.662;2023-07-31T03:20:59;99734.09;;;17.38;62.88
11041;BME280;5573;49.592;8.662;2023-07-31T03:23:27;99740.69;;;17.53;61.94
11041;BME280;5573;49.592;8.662;2023-07-31T03:25:57;99734.09;;;17.38;62.33
11041;BME280;5573;49.592;8.662;2023-07-31T03:28:27;99669.72;;;17.00;62.02
11041;BME280;5573;49.592;8.662;2023-07-31T03:30:55;99740.66;;;17.48;61.65
11041;BME280;5573;49.592;8.662;2023-07-31T03:33:24;99729.00;;;17.37;62.47
11041;BME280;5573;49.592;8.662;2023-07-31T03:35:51;99731.69;;;17.37;62.50
11041;BME280;5573;49.592;8.662;2023-07-31T03:38:20;99733.63;;;17.41;62.45
11041;BME280;5573;49.592;8.662;2023-07-31T03:40:48;99736.31;;;17.46;61.84
11041;BME280;5573;49.592;8.662;2023-07-31T03:43:17;99723.94;;;17.45;61.91
11041;BME280;5573;49.592;8.662;2023-07-31T03:45:45;99727.47;;;17.51;61.79
11041;BME280;5573;49.592;8.662;2023-07-31T03:48:14;99731.94;;;17.35;62.91
11041;BME280;5573;49.592;8.662;2023-07-31T03:50:42;99725.00;;;17.44;62.25
11041;BME280;5573;49.592;8.662;2023-07-31T03:53:10;99733.84;;;17.40;62.08
11041;BME280;5573;49.592;8.662;2023-07-31T03:55:38;99734.16;;;17.43;61.80
11041;BME280;5573;49.592;8.662;2023-07-31T03:58:06;99723.63;;;17.42;61.91
11041;BME280;5573;49.592;8.662;2023-07-31T04:00:35;99716.94;;;17.44;61.94
11041;BME280;5573;49.592;8.662;2023-07-31T04:03:03;99726.91;;;17.44;61.96
11041;BME280;5573;49.592;8.662;2023-07-31T04:05:31;99725.53;;;17.41;62.32
11041;BME280;5573;49.592;8.662;2023-07-31T04:08:00;99726.31;;;17.37;61.96
11041;BME280;5573;49.592;8.662;2023-07-31T04:10:27;99726.03;;;17.38;62.33
11041;BME280;5573;49.592;8.662;2023-07-31T04:12:56;99729.28;;;17.40;62.11
11041;BME280;5573;49.592;8.662;2023-07-31T04:15:23;99727.13;;;17.37;62.08
11041;BME280;5573;49.592;8.662;2023-07-31T04:17:53;99733.81;;;17.35;62.37
11041;BME280;5573;49.592;8.662;2023-07-31T04:20:21;99738.06;;;17.31;62.52
11041;BME280;5573;49.592;8.662;2023-07-31T04:22:49;99749.97;;;17.35;62.23
11041;BME280;5573;49.592;8.662;2023-07-31T04:25:16;99745.97;;;17.37;62.36
11041;BME280;5573;49.592;8.662;2023-07-31T04:27:44;99743.50;;;17.36;62.47
11041;BME280;5573;49.592;8.662;2023-07-31T04:30:12;99728.72;;;17.38;62.46
11041;BME280;5573;49.592;8.662;2023-07-31T04:32:40;99733.84;;;17.40;61.94
11041;BME280;5573;49.592;8.662;2023-07-31T04:35:10;99719.28;;;17.36;61.91
11041;BME280;5573;49.592;8.662;2023-07-31T04:37:38;99719.22;;;17.26;62.41
11041;BME280;5573;49.592;8.662;2023-07-31T04:40:07;99711.44;;;17.34;62.24
11041;BME280;5573;49.592;8.662;2023-07-31T04:42:35;99711.72;;;17.33;62.55
11041;BME280;5573;49.592;8.662;2023-07-31T04:45:03;99719.84;;;17.38;62.07
11041;BME280;5573;49.592;8.662;2023-07-31T04:47:31;99723.59;;;17.37;62.38
11041;BME280;5573;49.592;8.662;2023-07-31T04:49:59;99720.09;;;17.36;62.73
11041;BME280;5573;49.592;8.662;2023-07-31T04:52:29;99720.16;;;17.41;62.06
11041;BME280;5573;49.592;8.662;2023-07-31T04:54:57;99707.81;;;17.51;61.76
11041;BME280;5573;49.592;8.662;2023-07-31T04:57:24;99692.19;;;17.48;61.96
11041;BME280;5573;49.592;8.662;2023-07-31T04:59:52;99721.84;;;17.53;61.55
11041;BME280;5573;49.592;8.662;2023-07-31T05:02:20;99714.75;;;17.41;62.69
11041;BME280;5573;49.592;8.662;2023-07-31T05:04:48;99711.31;;;17.51;62.07
11041;BME280;5573;49.592;8.662;2023-07-31T05:07:16;99712.59;;;17.43;62.34
11041;BME280;5573;49.592;8.662;2023-07-31T05:09:45;99705.66;;;17.48;62.21
11041;BME280;5573;49.592;8.662;2023-07-31T05:12:13;99715.78;;;17.35;62.61
11041;BME280;5573;49.592;8.662;2023-07-31T05:14:41;99715.75;;;17.30;62.89
11041;BME280;5573;49.592;8.662;2023-07-31T05:17:09;99717.41;;;17.36;62.92
11041;BME280;5573;49.592;8.662;2023-07-31T05:19:37;99709.56;;;17.30;63.56
11041;BME280;5573;49.592;8.662;2023-07-31T05:22:05;99710.91;;;17.32;63.21
11041;BME280;5573;49.592;8.662;2023-07-31T05:24:33;99706.34;;;17.33;63.12
11041;BME280;5573;49.592;8.662;2023-07-31T05:27:02;99704.47;;;17.33;63.17
11041;BME280;5573;49.592;8.662;2023-07-31T05:29:30;99706.06;;;17.34;62.78
11041;BME280;5573;49.592;8.662;2023-07-31T05:31:58;99708.84;;;17.44;63.08
11041;BME280;5573;49.592;8.662;2023-07-31T05:34:26;99703.75;;;17.48;62.81
11041;BME280;5573;49.592;8.662;2023-07-31T05:36:54;99707.75;;;17.40;62.79
11041;BME280;5573;49.592;8.662;2023-07-31T05:39:22;99703.25;;;17.51;62.61
11041;BME280;5573;49.592;8.662;2023-07-31T05:41:49;99701.97;;;17.59;62.82
11041;BME280;5573;49.592;8.662;2023-07-31T05:44:18;99705.31;;;17.76;61.71
11041;BME280;5573;49.592;8.662;2023-07-31T05:46:46;99702.59;;;17.71;62.13
11041;BME280;5573;49.592;8.662;2023-07-31T05:49:14;99709.59;;;17.72;62.40
11041;BME280;5573;49.592;8.662;2023-07-31T05:51:42;99699.91;;;17.71;61.97
11041;BME280;5573;49.592;8.662;2023-07-31T05:54:10;99707.19;;;17.70;62.33
11041;BME280;5573;49.592;8.662;2023-07-31T05:56:37;99708.00;;;17.71;62.43
11041;BME280;5573;49.592;8.662;2023-07-31T05:59:06;99705.50;;;17.64;62.70
11041;BME280;5573;49.592;8.662;2023-07-31T06:01:35;99697.66;;;17.58;63.58
11041;BME280;5573;49.592;8.662;2023-07-31T06:04:03;99690.66;;;17.57;63.00
11041;BME280;5573;49.592;8.662;2023-07-31T06:06:31;99686.97;;;17.73;62.52
11041;BME280;5573;49.592;8.662;2023-07-31T06:08:59;99686.72;;;17.74;62.49
11041;BME280;5573;49.592;8.662;2023-07-31T06:11:26;99690.88;;;17.92;62.50
11041;BME280;5573;49.592;8.662;2023-07-31T06:13:54;99683.84;;;17.86;62.59
11041;BME280;5573;49.592;8.662;2023-07-31T06:16:22;99698.94;;;17.92;61.87
11041;BME280;5573;49.592;8.662;2023-07-31T06:18:51;99692.13;;;17.74;62.36
11041;BME280;5573;49.592;8.662;2023-07-31T06:21:19;99690.78;;;17.77;62.58
11041;BME280;5573;49.592;8.662;2023-07-31T06:23:47;99690.25;;;17.75;63.69
11041;BME280;5573;49.592;8.662;2023-07-31T06:26:15;99690.13;;;18.07;61.72
11041;BME280;5573;49.592;8.662;2023-07-31T06:28:42;99689.31;;;18.06;62.45
11041;BME280;5573;49.592;8.662;2023-07-31T06:31:10;99698.28;;;18.22;61.05
11041;BME280;5573;49.592;8.662;2023-07-31T06:33:38;99683.16;;;18.11;61.36
11041;BME280;5573;49.592;8.662;2023-07-31T06:36:07;99684.59;;;18.33;61.36
11041;BME280;5573;49.592;8.662;2023-07-31T06:38:35;99688.97;;;18.50;61.74
11041;BME280;5573;49.592;8.662;2023-07-31T06:41:04;99682.28;;;18.57;60.42
11041;BME280;5573;49.592;8.662;2023-07-31T06:43:32;99684.19;;;18.67;60.28
11041;BME280;5573;49.592;8.662;2023-07-31T06:46:04;99681.44;;;18.52;60.62
11041;BME280;5573;49.592;8.662;2023-07-31T06:48:32;99691.63;;;18.34;61.14
11041;BME280;5573;49.592;8.662;2023-07-31T06:51:00;99681.28;;;18.21;61.37
11041;BME280;5573;49.592;8.662;2023-07-31T06:53:30;99686.16;;;18.24;61.75
11041;BME280;5573;49.592;8.662;2023-07-31T06:55:58;99701.31;;;18.40;60.84
11041;BME280;5573;49.592;8.662;2023-07-31T06:58:25;99697.53;;;18.36;61.34
11041;BME280;5573;49.592;8.662;2023-07-31T07:00:53;99696.50;;;18.48;60.96
11041;BME280;5573;49.592;8.662;2023-07-31T07:03:21;99694.13;;;18.56;61.08
11041;BME280;5573;49.592;8.662;2023-07-31T07:05:49;99698.75;;;18.76;60.37
11041;BME280;5573;49.592;8.662;2023-07-31T07:08:16;99696.34;;;18.79;60.75
11041;BME280;5573;49.592;8.662;2023-07-31T07:10:46;99694.19;;;18.92;59.92
11041;BME280;5573;49.592;8.662;2023-07-31T07:13:14;99691.72;;;18.65;61.22
11041;BME280;5573;49.592;8.662;2023-07-31T07:15:42;99694.38;;;18.55;61.21
11041;BME280;5573;49.592;8.662;2023-07-31T07:18:09;99682.03;;;18.74;61.45
11041;BME280;5573;49.592;8.662;2023-07-31T07:20:38;99679.38;;;18.94;60.01
11041;BME280;5573;49.592;8.662;2023-07-31T07:23:06;99693.41;;;19.62;58.96
11041;BME280;5573;49.592;8.662;2023-07-31T07:25:37;99683.16;;;19.64;58.16
11041;BME280;5573;49.592;8.662;2023-07-31T07:28:06;99678.84;;;19.48;59.23
11041;BME280;5573;49.592;8.662;2023-07-31T07:30:34;99624.56;;;18.94;58.53
11041;BME280;5573;49.592;8.662;2023-07-31T07:33:02;99688.00;;;19.11;61.15
11041;BME280;5573;49.592;8.662;2023-07-31T07:35:30;99684.78;;;19.09;60.33
11041;BME280;5573;49.592;8.662;2023-07-31T07:37:57;99686.66;;;19.14;61.22
11041;BME280;5573;49.592;8.662;2023-07-31T07:40:25;99685.84;;;18.93;61.17
11041;BME280;5573;49.592;8.662;2023-07-31T07:42:53;99687.19;;;19.26;60.50
11041;BME280;5573;49.592;8.662;2023-07-31T07:45:22;99688.00;;;19.26;60.94
11041;BME280;5573;49.592;8.662;2023-07-31T07:47:50;99686.91;;;19.58;59.44
11041;BME280;5573;49.592;8.662;2023-07-31T07:50:18;99679.09;;;19.56;59.82
11041;BME280;5573;49.592;8.662;2023-07-31T07:52:47;99678.53;;;19.69;58.56
11041;BME280;5573;49.592;8.662;2023-07-31T07:55:15;99676.91;;;19.78;58.35
11041;BME280;5573;49.592;8.662;2023-07-31T07:57:42;99679.63;;;19.68;58.59
11041;BME280;5573;49.592;8.662;2023-07-31T08:00:13;99678.84;;;19.27;59.60
11041;BME280;5573;49.592;8.662;2023-07-31T08:02:43;99673.69;;;19.66;59.41
11041;BME280;5573;49.592;8.662;2023-07-31T08:05:11;99662.25;;;19.95;58.97
11041;BME280;5573;49.592;8.662;2023-07-31T08:07:38;99664.50;;;20.47;57.55
11041;BME280;5573;49.592;8.662;2023-07-31T08:10:07;99665.66;;;20.74;55.79
11041;BME280;5573;49.592;8.662;2023-07-31T08:12:34;99669.44;;;20.78;55.48
11041;BME280;5573;49.592;8.662;2023-07-31T08:15:03;99657.19;;;20.86;55.38
11041;BME280;5573;49.592;8.662;2023-07-31T08:17:31;99663.41;;;20.92;56.01
11041;BME280;5573;49.592;8.662;2023-07-31T08:20:00;99640.81;;;21.06;55.07
11041;BME280;5573;49.592;8.662;2023-07-31T08:22:28;99649.00;;;20.96;54.80
11041;BME280;5573;49.592;8.662;2023-07-31T08:24:56;99648.25;;;20.86;55.47
11041;BME280;5573;49.592;8.662;2023-07-31T08:27:23;99647.50;;;21.19;54.66
11041;BME280;5573;49.592;8.662;2023-07-31T08:29:51;99640.50;;;21.13;55.46
11041;BME280;5573;49.592;8.662;2023-07-31T08:32:19;99642.50;;;20.97;55.02
11041;BME280;5573;49.592;8.662;2023-07-31T08:34:47;99636.44;;;21.10;54.89
11041;BME280;5573;49.592;8.662;2023-07-31T08:37:17;99633.44;;;21.17;55.10
11041;BME280;5573;49.592;8.662;2023-07-31T08:39:44;99623.34;;;21.22;54.44
11041;BME280;5573;49.592;8.662;2023-07-31T08:42:12;99631.91;;;21.35;53.14
11041;BME280;5573;49.592;8.662;2023-07-31T08:44:40;99627.38;;;20.91;55.14
11041;BME280;5573;49.592;8.662;2023-07-31T08:47:09;99622.22;;;20.95;54.63
11041;BME280;5573;49.592;8.662;2023-07-31T08:49:38;99611.69;;;20.88;56.03
11041;BME280;5573;49.592;8.662;2023-07-31T08:52:07;99612.97;;;20.96;55.18
11041;BME280;5573;49.592;8.662;2023-07-31T08:54:36;99611.50;;;20.79;55.06
11041;BME280;5573;49.592;8.662;2023-07-31T08:57:05;99612.19;;;20.61;55.13
11041;BME280;5573;49.592;8.662;2023-07-31T08:59:34;99615.97;;;20.60;56.10
11041;BME280;5573;49.592;8.662;2023-07-31T09:02:05;99609.66;;;20.70;55.98
11041;BME280;5573;49.592;8.662;2023-07-31T09:04:35;99605.63;;;20.67;55.80
11041;BME280;5573;49.592;8.662;2023-07-31T09:07:03;99608.97;;;20.54;56.18
11041;BME280;5573;49.592;8.662;2023-07-31T09:09:32;99607.88;;;20.55;56.48
11041;BME280;5573;49.592;8.662;2023-07-31T09:12:01;99600.19;;;21.06;55.73
11041;BME280;5573;49.592;8.662;2023-07-31T09:14:29;99605.03;;;21.09;56.47
11041;BME280;5573;49.592;8.662;2023-07-31T09:16:58;99575.41;;;21.47;55.27
11041;BME280;5573;49.592;8.662;2023-07-31T09:19:27;99605.66;;;22.06;52.92
11041;BME280;5573;49.592;8.662;2023-07-31T09:21:55;99596.78;;;22.19;52.63
11041;BME280;5573;49.592;8.662;2023-07-31T09:24:27;99602.38;;;22.28;52.80
11041;BME280;5573;49.592;8.662;2023-07-31T09:26:57;99602.91;;;21.83;53.24
11041;BME280;5573;49.592;8.662;2023-07-31T09:29:27;99599.94;;;22.45;51.63
11041;BME280;5573;49.592;8.662;2023-07-31T09:31:56;99600.03;;;21.74;53.57
11041;BME280;5573;49.592;8.662;2023-07-31T09:34:30;99597.81;;;21.81;54.29
11041;BME280;5573;49.592;8.662;2023-07-31T09:37:01;99597.00;;;22.23;51.39
11041;BME280;5573;49.592;8.662;2023-07-31T09:39:30;99589.03;;;22.50;51.28
11041;BME280;5573;49.592;8.662;2023-07-31T09:41:58;99587.63;;;22.53;51.84
11041;BME280;5573;49.592;8.662;2023-07-31T09:44:41;99576.56;;;22.68;51.54
11041;BME280;5573;49.592;8.662;2023-07-31T09:47:21;99578.22;;;22.64;50.95
11041;BME280;5573;49.592;8.662;2023-07-31T09:49:51;99575.50;;;22.45;51.72
11041;BME280;5573;49.592;8.662;2023-07-31T09:52:19;99576.03;;;22.47;51.40
11041;BME280;5573;49.592;8.662;2023-07-31T09:54:47;99559.16;;;22.32;50.08
11041;BME280;5573;49.592;8.662;2023-07-31T09:57:17;99568.97;;;21.85;51.20
11041;BME280;5573;49.592;8.662;2023-07-31T09:59:48;99573.69;;;21.80;52.17
11041;BME280;5573;49.592;8.662;2023-07-31T10:02:21;99563.41;;;21.53;52.15
11041;BME280;5573;49.592;8.662;2023-07-31T10:04:50;99557.75;;;21.25;53.00
11041;BME280;5573;49.592;8.662;2023-07-31T10:07:18;99552.00;;;21.32;53.46
11041;BME280;5573;49.592;8.662;2023-07-31T10:09:48;99564.22;;;21.29;54.05
11041;BME280;5573;49.592;8.662;2023-07-31T10:12:19;99556.78;;;21.16;54.13
11041;BME280;5573;49.592;8.662;2023-07-31T10:14:48;99553.00;;;21.12;54.24
11041;BME280;5573;49.592;8.662;2023-07-31T10:17:18;99548.09;;;21.14;54.62
11041;BME280;5573;49.592;8.662;2023-07-31T10:19:47;99552.13;;;21.46;54.18
11041;BME280;5573;49.592;8.662;2023-07-31T10:22:15;99497.59;;;21.28;53.67
11041;BME280;5573;49.592;8.662;2023-07-31T10:24:45;99540.47;;;21.69;53.08
11041;BME280;5573;49.592;8.662;2023-07-31T10:27:13;99545.59;;;21.89;52.63
11041;BME280;5573;49.592;8.662;2023-07-31T10:29:43;99531.44;;;21.97;52.74
11041;BME280;5573;49.592;8.662;2023-07-31T10:32:13;99531.66;;;22.01;52.75
11041;BME280;5573;49.592;8.662;2023-07-31T10:34:43;99528.31;;;22.60;52.04
11041;BME280;5573;49.592;8.662;2023-07-31T10:37:22;99530.25;;;22.92;50.16
11041;BME280;5573;49.592;8.662;2023-07-31T10:40:00;99543.00;;;22.59;50.88
11041;BME280;5573;49.592;8.662;2023-07-31T10:42:30;99544.19;;;22.53;51.60
11041;BME280;5573;49.592;8.662;2023-07-31T10:44:59;99535.66;;;22.41;51.15
11041;BME280;5573;49.592;8.662;2023-07-31T10:47:28;99532.69;;;22.23;52.12
11041;BME280;5573;49.592;8.662;2023-07-31T10:50:12;99533.78;;;22.22;51.62
11041;BME280;5573;49.592;8.662;2023-07-31T10:52:44;99532.88;;;22.46;51.46
11041;BME280;5573;49.592;8.662;2023-07-31T10:55:24;99540.44;;;22.11;52.21
11041;BME280;5573;49.592;8.662;2023-07-31T10:57:52;99518.63;;;22.03;52.03
11041;BME280;5573;49.592;8.662;2023-07-31T11:00:23;99550.00;;;22.28;52.24
11041;BME280;5573;49.592;8.662;2023-07-31T11:03:04;99545.38;;;22.09;50.90
11041;BME280;5573;49.592;8.662;2023-07-31T11:05:50;99528.66;;;22.02;51.57
11041;BME280;5573;49.592;8.662;2023-07-31T11:08:21;99523.69;;;22.09;51.26
11041;BME280;5573;49.592;8.662;2023-07-31T11:10:51;99518.66;;;22.54;51.46
11041;BME280;5573;49.592;8.662;2023-07-31T11:13:33;99519.28;;;22.64;51.09
11041;BME280;5573;49.592;8.662;2023-07-31T11:16:06;99481.34;;;22.27;50.52
11041;BME280;5573;49.592;8.662;2023-07-31T11:18:38;99506.16;;;22.53;50.55
11041;BME280;5573;49.592;8.662;2023-07-31T11:21:06;99504.78;;;22.55;50.61
11041;BME280;5573;49.592;8.662;2023-07-31T11:23:36;99502.78;;;22.61;50.90
11041;BME280;5573;49.592;8.662;2023-07-31T11:26:05;99508.19;;;22.47;51.66
11041;BME280;5573;49.592;8.662;2023-07-31T11:28:34;99502.03;;;22.04;52.26
11041;BME280;5573;49.592;8.662;2023-07-31T11:31:02;99509.16;;;22.00;50.58
11041;BME280;5573;49.592;8.662;2023-07-31T11:33:31;99514.44;;;22.10;50.24
11041;BME280;5573;49.592;8.662;2023-07-31T11:36:00;99490.47;;;22.17;51.06
11041;BME280;5573;49.592;8.662;2023-07-31T11:38:29;99503.44;;;22.20;51.58
11041;BME280;5573;49.592;8.662;2023-07-31T11:40:59;99502.56;;;22.06;51.95
11041;BME280;5573;49.592;8.662;2023-07-31T11:43:28;99511.94;;;21.95;52.64
11041;BME280;5573;49.592;8.662;2023-07-31T11:45:58;99504.16;;;22.07;52.72
11041;BME280;5573;49.592;8.662;2023-07-31T11:48:29;99491.34;;;22.13;51.76
11041;BME280;5573;49.592;8.662;2023-07-31T11:50:58;99487.44;;;22.00;52.78
11041;BME280;5573;49.592;8.662;2023-07-31T11:53:31;99481.69;;;22.07;51.91
11041;BME280;5573;49.592;8.662;2023-07-31T11:56:00;99467.53;;;22.10;51.92
11041;BME280;5573;49.592;8.662;2023-07-31T11:58:31;99468.13;;;22.07;52.64
11041;BME280;5573;49.592;8.662;2023-07-31T12:01:01;99476.69;;;22.14;52.31
11041;BME280;5573;49.592;8.662;2023-07-31T12:03:31;99476.28;;;21.83;52.55
11041;BME280;5573;49.592;8.662;2023-07-31T12:06:00;99467.53;;;21.67;53.13
11041;BME280;5573;49.592;8.662;2023-07-31T12:08:29;99469.44;;;21.67;53.03
11041;BME280;5573;49.592;8.662;2023-07-31T12:11:02;99458.34;;;21.45;54.33
11041;BME280;5573;49.592;8.662;2023-07-31T12:13:31;99455.59;;;21.50;53.21
11041;BME280;5573;49.592;8.662;2023-07-31T12:16:00;99460.97;;;21.55;53.41
11041;BME280;5573;49.592;8.662;2023-07-31T12:18:33;99432.84;;;21.27;54.00
11041;BME280;5573;49.592;8.662;2023-07-31T12:21:02;99447.06;;;21.38;53.79
11041;BME280;5573;49.592;8.662;2023-07-31T12:23:32;99451.06;;;21.64;53.95
11041;BME280;5573;49.592;8.662;2023-07-31T12:26:01;99449.22;;;21.59;53.52
11041;BME280;5573;49.592;8.662;2023-07-31T12:28:29;99428.72;;;21.53;53.68
11041;BME280;5573;49.592;8.662;2023-07-31T12:30:57;99441.03;;;21.83;52.70
11041;BME280;5573;49.592;8.662;2023-07-31T12:33:30;99433.91;;;21.87;53.07
11041;BME280;5573;49.592;8.662;2023-07-31T12:36:01;99440.97;;;21.88;52.17
11041;BME280;5573;49.592;8.662;2023-07-31T12:38:30;99432.41;;;21.81;52.60
11041;BME280;5573;49.592;8.662;2023-07-31T12:40:58;99434.50;;;21.84;52.97
11041;BME280;5573;49.592;8.662;2023-07-31T12:43:26;99429.09;;;21.84;52.87
11041;BME280;5573;49.592;8.662;2023-07-31T12:45:54;99425.88;;;22.01;52.25
11041;BME280;5573;49.592;8.662;2023-07-31T12:48:23;99423.06;;;21.87;52.51
11041;BME280;5573;49.592;8.662;2023-07-31T12:50:51;99427.19;;;21.85;52.28
11041;BME280;5573;49.592;8.662;2023-07-31T12:53:19;99428.13;;;21.75;52.62
11041;BME280;5573;49.592;8.662;2023-07-31T12:55:48;99432.47;;;21.76;52.89
11041;BME280;5573;49.592;8.662;2023-07-31T12:58:16;99418.31;;;21.79;51.56
11041;BME280;5573;49.592;8.662;2023-07-31T13:00:44;99425.25;;;21.85;52.34
11041;BME280;5573;49.592;8.662;2023-07-31T13:03:12;99418.72;;;21.91;51.75
11041;BME280;5573;49.592;8.662;2023-07-31T13:05:41;99407.75;;;21.96;51.39
11041;BME280;5573;49.592;8.662;2023-07-31T13:08:08;99407.06;;;21.91;51.74
11041;BME280;5573;49.592;8.662;2023-07-31T13:10:36;99398.63;;;21.92;51.44
11041;BME280;5573;49.592;8.662;2023-07-31T13:13:05;99398.84;;;21.96;52.06
11041;BME280;5573;49.592;8.662;2023-07-31T13:15:33;99400.06;;;22.36;50.66
11041;BME280;5573;49.592;8.662;2023-07-31T13:18:01;99396.56;;;22.35;50.95
11041;BME280;5573;49.592;8.662;2023-07-31T13:20:29;99393.97;;;22.44;50.37